Terminal Aerodrome Forecast
Issued by NWS

Home | Current Version | Previous Version | Text Only | Print | Product List | Glossary On
Versions: 1 2 3 4 5 6 7 8 9 10 11 12 13 14 15 16 17 18 19 20 21 22 23 24 25 26 27 28 29 30 31 32 33 34 35 36 37 38 39 40 41 42
000
FTUS45 KVEF 220500
TAFLAS
TAF
KLAS 220520Z 2206/2306 21008KT P6SM BKN180 OVC250
     FM221400 25007KT P6SM SCT250
     FM222000 33009KT P6SM FEW250
      TEMPO 2221/2301 33012G18KT
     FM230300 23005KT P6SM SKC=

USA.gov is the U.S. government's official web portal to all federal, state and local government web resources and services.